Time;durP1;ratioP1;P1;durP2;ratioP2;P2;SDS_P1;SDS_P2;PMS_P1;PMS_P2;Temp;Humidity;BMP_temperature;BMP_pressure;BME280_temperature;BME280_humidity;BME280_pressure;Samples;Min_cycle;Max_cycle;Signal;HPM_P1;HPM_P2
2021/11/29 00:00:31;;;;;;;3.57;1.43;;;;;;;;;;5026740;28;20771;-85
2021/11/29 00:03:04;;;;;;;2.00;1.30;;;;;;;;;;5027956;28;20931;-84
2021/11/29 00:05:31;;;;;;;4.05;1.65;;;;;;;;;;5022912;28;20516;-84
2021/11/29 00:08:00;;;;;;;3.20;1.77;;;;;;;;;;5027303;28;20405;-85
2021/11/29 00:10:27;;;;;;;2.13;1.00;;;;;;;;;;5027923;28;20405;-85
2021/11/29 00:12:55;;;;;;;2.90;1.50;;;;;;;;;;5027559;28;20406;-85
2021/11/29 00:15:22;;;;;;;1.35;0.90;;;;;;;;;;5027465;28;20951;-85
2021/11/29 00:17:49;;;;;;;2.95;1.63;;;;;;;;;;5027090;28;20762;-85
2021/11/29 00:20:18;;;;;;;2.95;1.48;;;;;;;;;;5024944;28;20438;-85
2021/11/29 00:22:47;;;;;;;3.38;1.40;;;;;;;;;;5027173;28;20476;-85
2021/11/29 00:25:14;;;;;;;3.20;1.30;;;;;;;;;;5027528;28;20408;-85
2021/11/29 00:27:41;;;;;;;2.60;1.40;;;;;;;;;;5027351;28;20477;-85
2021/11/29 00:30:12;;;;;;;3.03;1.45;;;;;;;;;;5024337;28;20405;-85
2021/11/29 00:32:40;;;;;;;5.28;2.00;;;;;;;;;;5027139;28;20409;-85
2021/11/29 00:35:08;;;;;;;4.40;2.00;;;;;;;;;;5023650;28;20449;-85
2021/11/29 00:37:37;;;;;;;2.85;1.23;;;;;;;;;;5024539;28;20405;-85
2021/11/29 00:40:07;;;;;;;2.15;1.00;;;;;;;;;;5040974;28;20424;-84
2021/11/29 00:42:34;;;;;;;1.85;0.95;;;;;;;;;;5046401;28;20396;-84
2021/11/29 00:45:01;;;;;;;1.60;0.90;;;;;;;;;;5046701;28;20403;-85
2021/11/29 00:47:28;;;;;;;2.45;1.17;;;;;;;;;;5046432;28;20407;-84
2021/11/29 00:49:54;;;;;;;3.00;1.40;;;;;;;;;;5043902;28;20396;-85
2021/11/29 00:52:21;;;;;;;3.90;1.75;;;;;;;;;;5046851;28;20419;-85
2021/11/29 00:54:50;;;;;;;1.27;0.57;;;;;;;;;;5045339;28;20407;-84
2021/11/29 00:57:16;;;;;;;0.47;0.47;;;;;;;;;;5046355;28;20400;-85
2021/11/29 00:59:46;;;;;;;0.20;0.20;;;;;;;;;;5045628;28;20416;-85
2021/11/29 01:02:14;;;;;;;0.73;0.22;;;;;;;;;;5045436;28;20491;-85
2021/11/29 01:04:40;;;;;;;0.50;0.30;;;;;;;;;;5045481;28;20458;-84
2021/11/29 01:07:07;;;;;;;0.40;0.30;;;;;;;;;;5044489;28;20484;-85
2021/11/29 01:09:34;;;;;;;1.10;0.70;;;;;;;;;;5046063;28;20408;-85
2021/11/29 01:12:03;;;;;;;0.80;0.65;;;;;;;;;;5046031;28;20407;-84
2021/11/29 01:14:30;;;;;;;0.70;0.40;;;;;;;;;;5043342;28;20400;-85
2021/11/29 01:16:56;;;;;;;0.30;0.30;;;;;;;;;;5045881;28;20399;-84
2021/11/29 01:19:23;;;;;;;0.50;0.30;;;;;;;;;;5048684;28;21163;-84
2021/11/29 01:21:50;;;;;;;0.60;0.40;;;;;;;;;;5044237;28;20415;-84
2021/11/29 01:24:17;;;;;;;1.17;0.50;;;;;;;;;;5045564;28;20403;-85
2021/11/29 01:26:44;;;;;;;0.60;0.52;;;;;;;;;;5044865;28;20404;-85
2021/11/29 01:29:12;;;;;;;0.90;0.50;;;;;;;;;;5045394;28;20876;-84
2021/11/29 01:31:39;;;;;;;0.50;0.50;;;;;;;;;;5045256;28;20406;-84
2021/11/29 01:34:06;;;;;;;0.30;0.30;;;;;;;;;;5044705;28;20899;-84
2021/11/29 01:36:36;;;;;;;0.38;0.30;;;;;;;;;;5043854;28;20416;-85
2021/11/29 01:39:04;;;;;;;0.22;0.20;;;;;;;;;;5043704;28;20421;-84
2021/11/29 01:41:30;;;;;;;0.40;0.20;;;;;;;;;;5043201;28;20423;-83
2021/11/29 01:43:57;;;;;;;0.25;0.20;;;;;;;;;;5044807;28;20883;-83
2021/11/29 01:46:26;;;;;;;0.20;0.17;;;;;;;;;;5045022;28;20414;-84
2021/11/29 01:48:53;;;;;;;0.55;0.30;;;;;;;;;;5043518;28;20430;-84
2021/11/29 01:51:19;;;;;;;0.75;0.35;;;;;;;;;;5043840;28;20749;-84
2021/11/29 01:53:46;;;;;;;0.70;0.40;;;;;;;;;;5045406;28;20400;-85
2021/11/29 01:56:13;;;;;;;0.38;0.38;;;;;;;;;;5045005;28;20404;-85
2021/11/29 01:58:43;;;;;;;0.35;0.20;;;;;;;;;;5045622;28;20517;-85
2021/11/29 02:01:14;;;;;;;0.38;0.30;;;;;;;;;;5041750;28;20479;-84
2021/11/29 02:03:44;;;;;;;0.10;0.10;;;;;;;;;;5045468;28;20435;-85
2021/11/29 02:06:11;;;;;;;0.97;0.13;;;;;;;;;;5040338;28;20411;-85
2021/11/29 02:08:39;;;;;;;0.73;0.28;;;;;;;;;;5045231;28;20408;-85
2021/11/29 02:11:06;;;;;;;0.53;0.23;;;;;;;;;;5045494;28;20479;-85
2021/11/29 02:13:33;;;;;;;0.40;0.30;;;;;;;;;;5041794;28;20415;-85
2021/11/29 02:16:01;;;;;;;0.38;0.30;;;;;;;;;;5041471;28;20874;-85
2021/11/29 02:18:30;;;;;;;0.98;0.40;;;;;;;;;;5041556;28;20964;-85
2021/11/29 02:21:05;;;;;;;0.30;0.30;;;;;;;;;;5044438;28;20427;-85
2021/11/29 02:23:34;;;;;;;0.43;0.40;;;;;;;;;;5045813;28;20411;-85
2021/11/29 02:26:01;;;;;;;0.40;0.40;;;;;;;;;;5043808;28;20408;-85
2021/11/29 02:28:28;;;;;;;0.80;0.35;;;;;;;;;;5045400;28;20413;-85
2021/11/29 02:30:55;;;;;;;1.42;0.40;;;;;;;;;;5045150;28;20410;-85
2021/11/29 02:33:22;;;;;;;0.40;0.40;;;;;;;;;;5045318;28;20396;-85
2021/11/29 02:35:51;;;;;;;0.47;0.40;;;;;;;;;;5042118;28;20730;-85
2021/11/29 02:38:19;;;;;;;1.10;0.60;;;;;;;;;;5046437;28;20408;-85
2021/11/29 02:40:46;;;;;;;1.27;0.60;;;;;;;;;;5049018;28;20411;-85
2021/11/29 02:43:13;;;;;;;1.00;0.80;;;;;;;;;;5048830;28;20918;-85
2021/11/29 02:45:40;;;;;;;0.60;0.60;;;;;;;;;;5048974;28;20399;-84
2021/11/29 02:48:07;;;;;;;1.38;0.70;;;;;;;;;;5048273;28;20827;-85
2021/11/29 02:50:38;;;;;;;1.67;0.70;;;;;;;;;;5047813;28;20415;-85
2021/11/29 02:53:09;;;;;;;0.95;0.85;;;;;;;;;;5047926;28;20408;-85
2021/11/29 02:55:38;;;;;;;1.70;0.80;;;;;;;;;;5045591;28;20792;-84
2021/11/29 02:58:06;;;;;;;0.80;0.80;;;;;;;;;;5047734;28;20449;-85
2021/11/29 03:00:34;;;;;;;2.13;0.85;;;;;;;;;;5044226;28;20510;-84
2021/11/29 03:03:06;;;;;;;2.45;1.00;;;;;;;;;;5047371;28;20898;-84
2021/11/29 03:05:33;;;;;;;1.48;0.93;;;;;;;;;;5025488;28;20405;-84
2021/11/29 03:08:00;;;;;;;1.05;0.68;;;;;;;;;;5044135;28;20403;-84
2021/11/29 03:10:27;;;;;;;1.73;0.80;;;;;;;;;;5048831;28;20407;-85
2021/11/29 03:12:55;;;;;;;1.02;0.90;;;;;;;;;;5047980;28;20426;-84
2021/11/29 03:15:22;;;;;;;1.10;0.60;;;;;;;;;;5048710;28;20408;-84
2021/11/29 03:17:49;;;;;;;0.80;0.50;;;;;;;;;;5046810;28;20407;-84
2021/11/29 03:20:16;;;;;;;0.70;0.70;;;;;;;;;;5041925;28;20413;-84
2021/11/29 03:22:44;;;;;;;0.82;0.80;;;;;;;;;;5043854;28;20403;-84
2021/11/29 03:25:11;;;;;;;1.20;0.70;;;;;;;;;;5045570;28;20993;-85
2021/11/29 03:27:39;;;;;;;1.02;0.73;;;;;;;;;;5047573;28;20399;-84
2021/11/29 03:30:09;;;;;;;0.70;0.70;;;;;;;;;;5047644;28;20407;-85
2021/11/29 03:32:38;;;;;;;1.02;0.70;;;;;;;;;;5048006;28;20898;-85
2021/11/29 03:35:07;;;;;;;1.50;0.80;;;;;;;;;;5046179;28;20465;-85
2021/11/29 03:37:33;;;;;;;1.00;0.90;;;;;;;;;;5048472;28;20395;-84
2021/11/29 03:40:00;;;;;;;1.17;0.70;;;;;;;;;;5044019;28;20815;-85
2021/11/29 03:42:27;;;;;;;1.20;0.68;;;;;;;;;;5048368;28;20780;-83
2021/11/29 03:44:56;;;;;;;1.02;0.60;;;;;;;;;;5048069;28;20415;-84
2021/11/29 03:47:24;;;;;;;0.90;0.75;;;;;;;;;;5045409;28;20409;-84
2021/11/29 03:49:51;;;;;;;0.70;0.70;;;;;;;;;;5045756;28;20408;-84
2021/11/29 03:52:18;;;;;;;1.45;1.00;;;;;;;;;;5046058;28;20764;-85
2021/11/29 03:54:45;;;;;;;1.50;0.98;;;;;;;;;;5047511;28;20435;-84
2021/11/29 03:57:12;;;;;;;1.63;0.95;;;;;;;;;;5047480;28;20481;-84
2021/11/29 03:59:39;;;;;;;0.98;0.90;;;;;;;;;;5047238;28;20414;-84
2021/11/29 04:02:06;;;;;;;1.08;1.00;;;;;;;;;;5047079;28;20442;-84
2021/11/29 04:04:34;;;;;;;1.45;1.00;;;;;;;;;;5047317;28;20404;-83
2021/11/29 04:07:01;;;;;;;1.65;1.15;;;;;;;;;;5043888;28;20507;-83
2021/11/29 04:09:28;;;;;;;1.95;1.30;;;;;;;;;;5047534;28;20884;-84
2021/11/29 04:11:56;;;;;;;2.08;1.20;;;;;;;;;;5046839;28;20474;-84
2021/11/29 04:14:23;;;;;;;1.33;1.13;;;;;;;;;;5047073;28;20491;-84
2021/11/29 04:16:50;;;;;;;2.10;1.40;;;;;;;;;;5046629;28;20467;-84
2021/11/29 04:19:16;;;;;;;1.60;1.30;;;;;;;;;;5046804;28;20411;-84
2021/11/29 04:21:46;;;;;;;2.03;1.20;;;;;;;;;;5045912;28;20435;-84
2021/11/29 04:24:14;;;;;;;2.13;1.20;;;;;;;;;;5047191;28;20427;-83
2021/11/29 04:26:42;;;;;;;1.40;1.23;;;;;;;;;;5047308;28;20419;-85
2021/11/29 04:29:17;;;;;;;1.70;1.30;;;;;;;;;;5046964;28;20404;-84
2021/11/29 04:31:44;;;;;;;1.15;1.00;;;;;;;;;;5046601;28;20411;-84
2021/11/29 04:34:11;;;;;;;3.07;1.23;;;;;;;;;;5045947;28;20462;-83
2021/11/29 04:36:38;;;;;;;1.30;1.10;;;;;;;;;;5043737;28;20477;-84
2021/11/29 04:39:07;;;;;;;1.30;1.13;;;;;;;;;;5046106;28;20459;-84
2021/11/29 04:41:34;;;;;;;1.20;1.10;;;;;;;;;;5046581;28;20443;-83
2021/11/29 04:44:01;;;;;;;2.05;1.10;;;;;;;;;;5042301;28;20402;-83
2021/11/29 04:46:28;;;;;;;1.20;1.10;;;;;;;;;;5046444;28;20407;-82
2021/11/29 04:48:55;;;;;;;1.48;1.05;;;;;;;;;;5046171;28;20400;-83
2021/11/29 04:51:22;;;;;;;1.33;1.02;;;;;;;;;;5044829;28;20791;-84
2021/11/29 04:53:48;;;;;;;1.80;1.55;;;;;;;;;;5046789;28;20414;-84
2021/11/29 04:56:17;;;;;;;1.52;1.10;;;;;;;;;;5046462;28;20410;-83
2021/11/29 04:58:44;;;;;;;1.63;1.20;;;;;;;;;;5046086;28;20411;-84
2021/11/29 05:01:11;;;;;;;1.60;1.10;;;;;;;;;;5045379;28;20419;-83
2021/11/29 05:03:38;;;;;;;1.80;1.23;;;;;;;;;;5045143;28;20411;-84
2021/11/29 05:06:05;;;;;;;1.30;1.20;;;;;;;;;;5039107;28;20424;-84
2021/11/29 05:08:32;;;;;;;1.85;1.20;;;;;;;;;;5042102;28;20403;-84
2021/11/29 05:10:59;;;;;;;1.48;1.10;;;;;;;;;;5044986;28;20399;-84
2021/11/29 05:13:28;;;;;;;2.25;1.15;;;;;;;;;;5045873;28;20410;-84
2021/11/29 05:15:55;;;;;;;1.45;1.23;;;;;;;;;;5045370;28;20967;-84
2021/11/29 05:18:22;;;;;;;1.38;1.20;;;;;;;;;;5045626;28;20404;-84
2021/11/29 05:20:49;;;;;;;1.90;1.23;;;;;;;;;;5044326;28;20404;-84
2021/11/29 05:23:17;;;;;;;2.05;1.55;;;;;;;;;;5045384;28;20411;-84
2021/11/29 05:25:44;;;;;;;1.50;1.35;;;;;;;;;;5045416;28;20951;-84
2021/11/29 05:28:11;;;;;;;2.30;2.10;;;;;;;;;;5045614;28;20764;-84
2021/11/29 05:30:39;;;;;;;1.73;1.63;;;;;;;;;;5045435;28;20403;-84
2021/11/29 05:33:06;;;;;;;2.55;1.80;;;;;;;;;;5044810;28;20411;-83
2021/11/29 05:35:33;;;;;;;3.63;2.15;;;;;;;;;;5043361;28;20419;-83
2021/11/29 05:38:00;;;;;;;3.25;2.30;;;;;;;;;;5043710;28;20415;-84
2021/11/29 05:40:27;;;;;;;5.07;2.70;;;;;;;;;;5044761;28;20408;-84
2021/11/29 05:42:54;;;;;;;2.85;2.38;;;;;;;;;;5045137;28;20420;-84
2021/11/29 05:45:21;;;;;;;3.70;2.30;;;;;;;;;;5045110;28;20880;-83
2021/11/29 05:47:49;;;;;;;2.67;2.10;;;;;;;;;;5053336;22;20930;-85
2021/11/29 05:50:17;;;;;;;5.93;5.43;;;;;;;;;;5035852;28;20419;-84
2021/11/29 05:52:44;;;;;;;3.78;3.42;;;;;;;;;;5031317;28;20405;-84
2021/11/29 05:55:15;;;;;;;4.20;2.70;;;;;;;;;;5036237;28;20410;-83
2021/11/29 05:57:42;;;;;;;2.77;2.47;;;;;;;;;;5037839;28;20414;-84
2021/11/29 06:00:12;;;;;;;2.60;2.13;;;;;;;;;;5029674;28;20514;-84
2021/11/29 06:02:40;;;;;;;2.92;2.40;;;;;;;;;;5030944;28;20413;-85
2021/11/29 06:05:09;;;;;;;2.85;2.17;;;;;;;;;;5033546;28;20445;-85
2021/11/29 06:07:36;;;;;;;3.53;2.42;;;;;;;;;;5039582;28;20404;-84
2021/11/29 06:10:04;;;;;;;3.10;2.40;;;;;;;;;;5035310;28;20404;-84
2021/11/29 06:12:31;;;;;;;2.90;2.50;;;;;;;;;;5034836;28;20405;-84
2021/11/29 06:14:58;;;;;;;3.05;2.30;;;;;;;;;;5036379;28;20409;-85
2021/11/29 06:17:24;;;;;;;2.13;1.92;;;;;;;;;;5033621;28;20925;-84
2021/11/29 06:19:51;;;;;;;2.38;2.13;;;;;;;;;;5033941;28;20404;-82
2021/11/29 06:22:20;;;;;;;2.80;2.30;;;;;;;;;;5033800;28;20425;-85
2021/11/29 06:24:46;;;;;;;2.45;2.17;;;;;;;;;;5033602;28;20415;-84
2021/11/29 06:27:13;;;;;;;2.90;2.30;;;;;;;;;;5034866;28;20421;-85
2021/11/29 06:29:40;;;;;;;4.55;2.53;;;;;;;;;;5036404;28;20415;-85
2021/11/29 06:32:08;;;;;;;3.17;2.70;;;;;;;;;;5037688;28;20412;-85
2021/11/29 06:34:35;;;;;;;4.07;3.20;;;;;;;;;;5038937;28;20404;-85
2021/11/29 06:37:02;;;;;;;3.42;3.10;;;;;;;;;;5032290;28;20404;-85
2021/11/29 06:39:31;;;;;;;4.82;3.55;;;;;;;;;;5027726;28;20407;-86
2021/11/29 06:42:00;;;;;;;5.65;4.28;;;;;;;;;;5032913;28;20420;-87
2021/11/29 06:44:27;;;;;;;5.25;4.32;;;;;;;;;;5032991;28;20406;-85
2021/11/29 06:46:54;;;;;;;5.85;4.45;;;;;;;;;;5031460;28;20417;-84
2021/11/29 06:49:21;;;;;;;6.75;4.90;;;;;;;;;;5029538;28;20412;-83
2021/11/29 06:51:48;;;;;;;5.72;4.53;;;;;;;;;;5036722;28;20451;-83
2021/11/29 06:54:15;;;;;;;5.18;4.40;;;;;;;;;;5036592;28;20404;-83
2021/11/29 06:56:44;;;;;;;6.35;4.60;;;;;;;;;;5036932;28;20469;-82
2021/11/29 06:59:10;;;;;;;7.28;5.45;;;;;;;;;;5028947;28;20774;-83
2021/11/29 07:01:37;;;;;;;6.13;5.00;;;;;;;;;;5030364;28;20409;-83
2021/11/29 07:04:04;;;;;;;5.65;4.60;;;;;;;;;;5030154;28;20404;-81
2021/11/29 07:06:31;;;;;;;19.45;15.38;;;;;;;;;;5032009;28;20406;-83
2021/11/29 07:08:59;;;;;;;32.72;21.13;;;;;;;;;;5033303;28;20910;-83
2021/11/29 07:11:25;;;;;;;41.03;25.25;;;;;;;;;;5031473;28;20745;-83
2021/11/29 07:13:54;;;;;;;6.50;5.05;;;;;;;;;;5030985;28;20459;-82
2021/11/29 07:16:20;;;;;;;8.80;6.20;;;;;;;;;;5031180;28;20881;-83
2021/11/29 07:18:47;;;;;;;8.50;5.70;;;;;;;;;;5031004;28;20464;-84
2021/11/29 07:21:14;;;;;;;8.15;5.60;;;;;;;;;;5031465;28;20417;-83
2021/11/29 07:23:41;;;;;;;41.90;24.02;;;;;;;;;;5031495;28;20781;-83
2021/11/29 07:26:08;;;;;;;6.80;5.10;;;;;;;;;;5034097;28;20455;-83
2021/11/29 07:28:35;;;;;;;10.30;6.97;;;;;;;;;;5034276;28;20404;-83
2021/11/29 07:31:04;;;;;;;6.25;5.05;;;;;;;;;;5034637;28;20491;-83
2021/11/29 07:33:30;;;;;;;8.85;6.07;;;;;;;;;;5039245;28;20401;-83
2021/11/29 07:35:57;;;;;;;22.40;11.75;;;;;;;;;;5038510;28;20411;-84
2021/11/29 07:38:24;;;;;;;53.38;26.42;;;;;;;;;;5034765;28;20452;-83
2021/11/29 07:40:51;;;;;;;28.70;15.77;;;;;;;;;;5035085;28;20928;-84
2021/11/29 07:43:19;;;;;;;66.80;29.65;;;;;;;;;;5034800;28;20457;-84
2021/11/29 07:45:46;;;;;;;33.55;18.67;;;;;;;;;;5034725;28;20416;-83
2021/11/29 07:48:16;;;;;;;22.02;13.00;;;;;;;;;;5038953;28;21296;-83
2021/11/29 07:50:43;;;;;;;8.20;6.40;;;;;;;;;;5038245;28;20413;-83
2021/11/29 07:53:10;;;;;;;8.03;6.00;;;;;;;;;;5035324;28;20407;-83
2021/11/29 07:55:37;;;;;;;7.75;6.00;;;;;;;;;;5044037;28;20407;-83
2021/11/29 07:58:05;;;;;;;8.57;6.38;;;;;;;;;;5052558;28;20583;-83
2021/11/29 08:00:35;;;;;;;8.13;6.53;;;;;;;;;;5043328;28;20410;-83
2021/11/29 08:03:04;;;;;;;9.93;6.10;;;;;;;;;;5039675;28;20432;-84
2021/11/29 08:05:33;;;;;;;8.77;6.10;;;;;;;;;;5037357;28;20418;-83
2021/11/29 08:08:00;;;;;;;8.50;6.00;;;;;;;;;;5034351;28;20399;-83
2021/11/29 08:10:28;;;;;;;6.55;5.55;;;;;;;;;;5038339;28;20406;-84
2021/11/29 08:12:55;;;;;;;7.75;5.22;;;;;;;;;;5038665;28;21134;-82
2021/11/29 08:15:22;;;;;;;6.70;5.57;;;;;;;;;;5039146;28;20420;-82
2021/11/29 08:17:49;;;;;;;6.13;5.07;;;;;;;;;;5038958;28;20400;-83
2021/11/29 08:20:19;;;;;;;7.30;5.10;;;;;;;;;;5039232;28;20404;-82
2021/11/29 08:22:47;;;;;;;7.03;5.45;;;;;;;;;;5038655;28;20434;-82
2021/11/29 08:25:14;;;;;;;8.10;5.53;;;;;;;;;;5033694;28;20466;-83
2021/11/29 08:27:41;;;;;;;7.78;5.10;;;;;;;;;;5034454;28;20401;-83
2021/11/29 08:30:10;;;;;;;8.60;6.30;;;;;;;;;;5035460;28;20933;-84
2021/11/29 08:32:37;;;;;;;6.90;5.70;;;;;;;;;;5037538;28;20412;-83
2021/11/29 08:35:05;;;;;;;7.30;5.90;;;;;;;;;;5036841;28;20473;-82
2021/11/29 08:37:32;;;;;;;8.35;5.82;;;;;;;;;;5038720;28;20405;-83
2021/11/29 08:40:00;;;;;;;7.72;5.97;;;;;;;;;;5037988;28;20397;-83
2021/11/29 08:42:27;;;;;;;7.88;5.82;;;;;;;;;;5032989;28;20411;-83
2021/11/29 08:44:54;;;;;;;7.22;5.28;;;;;;;;;;5034119;28;20896;-82
2021/11/29 08:47:21;;;;;;;5.80;4.93;;;;;;;;;;5039209;28;20460;-83
2021/11/29 08:49:48;;;;;;;5.65;5.05;;;;;;;;;;5038446;28;20419;-82
2021/11/29 08:52:15;;;;;;;7.30;4.90;;;;;;;;;;5035428;28;20447;-82
2021/11/29 08:54:42;;;;;;;6.55;5.13;;;;;;;;;;5038700;28;20910;-82
2021/11/29 08:57:11;;;;;;;9.52;5.13;;;;;;;;;;5038223;28;20461;-83
2021/11/29 08:59:38;;;;;;;7.20;5.57;;;;;;;;;;5038989;28;20415;-83
2021/11/29 09:02:06;;;;;;;6.90;5.50;;;;;;;;;;5037899;28;20417;-83
2021/11/29 09:04:33;;;;;;;8.32;5.72;;;;;;;;;;5038273;28;20890;-83
2021/11/29 09:07:00;;;;;;;6.88;5.60;;;;;;;;;;5033655;28;20404;-83
2021/11/29 09:09:31;;;;;;;6.82;5.20;;;;;;;;;;5036215;28;20402;-83
2021/11/29 09:11:58;;;;;;;5.43;4.60;;;;;;;;;;5037621;28;20408;-83
2021/11/29 09:14:26;;;;;;;5.07;3.95;;;;;;;;;;5037624;28;20834;-83
2021/11/29 09:16:53;;;;;;;4.68;3.88;;;;;;;;;;5036280;28;20415;-83
2021/11/29 09:19:20;;;;;;;4.53;3.38;;;;;;;;;;5035641;28;20397;-83
2021/11/29 09:21:47;;;;;;;4.80;3.58;;;;;;;;;;5035100;28;20416;-83
2021/11/29 09:24:14;;;;;;;4.05;2.90;;;;;;;;;;5036490;28;20793;-83
2021/11/29 09:26:40;;;;;;;3.97;2.95;;;;;;;;;;5038128;28;20411;-83
2021/11/29 09:29:07;;;;;;;4.90;3.20;;;;;;;;;;5032911;28;20420;-83
2021/11/29 09:31:36;;;;;;;3.13;2.80;;;;;;;;;;5033025;28;20404;-83
2021/11/29 09:34:02;;;;;;;3.20;2.67;;;;;;;;;;5036657;28;20428;-83
2021/11/29 09:36:29;;;;;;;4.03;2.70;;;;;;;;;;5037919;28;20403;-84
2021/11/29 09:38:56;;;;;;;3.03;2.57;;;;;;;;;;5033374;28;20492;-83
2021/11/29 09:41:24;;;;;;;3.30;2.40;;;;;;;;;;5033506;28;20402;-83
2021/11/29 09:43:52;;;;;;;3.83;2.35;;;;;;;;;;5033032;28;20432;-82
2021/11/29 09:46:19;;;;;;;2.45;2.25;;;;;;;;;;5032734;28;20420;-83
2021/11/29 09:48:47;;;;;;;2.80;2.50;;;;;;;;;;5033308;28;20409;-83
2021/11/29 09:51:14;;;;;;;2.55;2.15;;;;;;;;;;5034006;28;20422;-83
2021/11/29 09:53:41;;;;;;;2.78;2.08;;;;;;;;;;5032850;28;20902;-83
2021/11/29 09:56:08;;;;;;;3.45;2.30;;;;;;;;;;5032169;28;20416;-83
2021/11/29 09:58:34;;;;;;;3.35;2.30;;;;;;;;;;5033013;28;20395;-83
2021/11/29 10:01:04;;;;;;;2.83;2.15;;;;;;;;;;5035921;28;20417;-83
2021/11/29 10:03:31;;;;;;;4.77;2.20;;;;;;;;;;5036280;28;20417;-82
2021/11/29 10:06:00;;;;;;;3.83;2.20;;;;;;;;;;5035687;28;20495;-83
2021/11/29 10:08:34;;;;;;;3.50;2.17;;;;;;;;;;5033473;28;20404;-83
2021/11/29 10:11:05;;;;;;;1.58;1.35;;;;;;;;;;5035967;28;20401;-83
2021/11/29 10:13:46;;;;;;;1.75;1.40;;;;;;;;;;5036606;28;20988;-83
2021/11/29 10:16:13;;;;;;;1.73;1.10;;;;;;;;;;5032456;28;20409;-83
2021/11/29 10:18:40;;;;;;;2.10;1.50;;;;;;;;;;5032512;28;20409;-83
2021/11/29 10:21:10;;;;;;;2.00;1.50;;;;;;;;;;5033691;28;20415;-83
2021/11/29 10:23:40;;;;;;;1.80;1.40;;;;;;;;;;5032399;28;20427;-82
2021/11/29 10:26:09;;;;;;;1.55;1.40;;;;;;;;;;5032262;28;20411;-83
2021/11/29 10:28:39;;;;;;;1.20;1.10;;;;;;;;;;5032460;28;20411;-83
2021/11/29 10:31:15;;;;;;;1.80;1.30;;;;;;;;;;5031634;28;20400;-83
2021/11/29 10:33:51;;;;;;;1.40;1.20;;;;;;;;;;5032658;28;20398;-82
2021/11/29 10:36:20;;;;;;;1.50;1.33;;;;;;;;;;5032387;28;20420;-82
2021/11/29 10:38:51;;;;;;;2.35;1.40;;;;;;;;;;5035965;28;20405;-82
2021/11/29 10:41:24;;;;;;;2.65;1.50;;;;;;;;;;5033999;28;20392;-82
2021/11/29 10:43:51;;;;;;;1.15;1.00;;;;;;;;;;5032741;28;20512;-82
2021/11/29 10:46:19;;;;;;;3.00;1.50;;;;;;;;;;5032616;28;20409;-83
2021/11/29 10:48:46;;;;;;;1.33;1.20;;;;;;;;;;5035638;28;20407;-82
2021/11/29 10:51:15;;;;;;;1.90;1.20;;;;;;;;;;5031073;28;20413;-82
2021/11/29 10:53:49;;;;;;;1.65;1.20;;;;;;;;;;5032381;28;20406;-82
2021/11/29 10:56:16;;;;;;;1.88;1.30;;;;;;;;;;5032668;28;20401;-82
2021/11/29 10:58:45;;;;;;;1.52;1.30;;;;;;;;;;5034384;28;20760;-82
2021/11/29 11:01:12;;;;;;;1.77;1.10;;;;;;;;;;5040601;28;20449;-82
2021/11/29 11:03:55;;;;;;;1.73;1.25;;;;;;;;;;5036251;28;20421;-83
2021/11/29 11:06:30;;;;;;;1.60;1.10;;;;;;;;;;5037344;28;20494;-82
2021/11/29 11:08:58;;;;;;;1.63;1.30;;;;;;;;;;5036712;28;20925;-82
2021/11/29 11:11:44;;;;;;;1.85;1.00;;;;;;;;;;5036599;28;20408;-83
2021/11/29 11:14:14;;;;;;;1.70;0.90;;;;;;;;;;5040367;28;20418;-83
2021/11/29 11:16:43;;;;;;;1.50;0.90;;;;;;;;;;5039413;28;20402;-83
2021/11/29 11:19:11;;;;;;;1.40;0.80;;;;;;;;;;5045913;28;20408;-83
2021/11/29 11:21:38;;;;;;;2.13;1.00;;;;;;;;;;5041622;28;20491;-83
2021/11/29 11:24:25;;;;;;;1.30;1.00;;;;;;;;;;5035859;28;20675;-82
2021/11/29 11:26:56;;;;;;;0.70;0.60;;;;;;;;;;5037137;28;20767;-83
2021/11/29 11:29:48;;;;;;;1.00;0.80;;;;;;;;;;5038854;28;20537;-83
2021/11/29 11:32:29;;;;;;;1.00;0.80;;;;;;;;;;5026468;28;20483;-83
2021/11/29 11:34:58;;;;;;;1.25;0.90;;;;;;;;;;5041332;28;20475;-83
2021/11/29 11:37:28;;;;;;;2.03;0.77;;;;;;;;;;5037231;28;20444;-83
2021/11/29 11:39:57;;;;;;;0.80;0.60;;;;;;;;;;5035608;28;20413;-82
2021/11/29 11:42:24;;;;;;;0.90;0.65;;;;;;;;;;5036777;28;20441;-84
2021/11/29 11:44:53;;;;;;;0.55;0.50;;;;;;;;;;5036259;28;20479;-83
2021/11/29 11:47:20;;;;;;;1.20;0.70;;;;;;;;;;5036326;28;20424;-83
2021/11/29 11:49:48;;;;;;;0.90;0.68;;;;;;;;;;5038931;28;20449;-82
2021/11/29 11:52:18;;;;;;;1.10;0.65;;;;;;;;;;5037255;28;20408;-83
2021/11/29 11:54:46;;;;;;;0.88;0.73;;;;;;;;;;5038599;28;20447;-83
2021/11/29 11:57:19;;;;;;;1.13;0.80;;;;;;;;;;5038344;28;20911;-84
2021/11/29 11:59:59;;;;;;;2.65;1.00;;;;;;;;;;5038188;28;21010;-83
2021/11/29 12:02:46;;;;;;;5.05;2.58;;;;;;;;;;5038839;28;20938;-83
2021/11/29 12:05:15;;;;;;;1.17;0.80;;;;;;;;;;5038742;28;20503;-83
2021/11/29 12:07:42;;;;;;;0.80;0.75;;;;;;;;;;5038380;28;20448;-83
2021/11/29 12:10:33;;;;;;;0.90;0.70;;;;;;;;;;5036804;28;20422;-83
2021/11/29 12:13:05;;;;;;;0.68;0.68;;;;;;;;;;5031545;28;20495;-84
2021/11/29 12:15:42;;;;;;;2.05;0.90;;;;;;;;;;5040176;28;20455;-83
2021/11/29 12:18:09;;;;;;;1.70;0.70;;;;;;;;;;5034788;28;20488;-83
2021/11/29 12:20:36;;;;;;;1.10;0.90;;;;;;;;;;5037488;28;20419;-84
2021/11/29 12:23:05;;;;;;;0.98;0.90;;;;;;;;;;5032565;28;20429;-84
2021/11/29 12:25:47;;;;;;;4.20;2.60;;;;;;;;;;5033941;28;20442;-84
2021/11/29 12:28:34;;;;;;;1.73;0.80;;;;;;;;;;5033064;28;21305;-84
2021/11/29 12:31:01;;;;;;;4.90;3.53;;;;;;;;;;5033789;28;20485;-83
2021/11/29 12:33:45;;;;;;;2.42;1.65;;;;;;;;;;5034489;28;20416;-84
2021/11/29 12:36:12;;;;;;;1.48;0.93;;;;;;;;;;5036155;28;20415;-84
2021/11/29 12:38:48;;;;;;;1.23;0.90;;;;;;;;;;5036563;28;20514;-84
2021/11/29 12:41:36;;;;;;;1.63;1.10;;;;;;;;;;5034384;28;20829;-84
2021/11/29 12:44:06;;;;;;;1.25;1.10;;;;;;;;;;5035946;28;20631;-83
2021/11/29 12:46:33;;;;;;;1.38;1.05;;;;;;;;;;5034746;28;20496;-76
2021/11/29 12:49:05;;;;;;;1.13;0.90;;;;;;;;;;5031188;28;20413;-83
2021/11/29 12:51:58;;;;;;;1.20;1.08;;;;;;;;;;5031538;28;20413;-83
2021/11/29 12:54:42;;;;;;;1.45;1.20;;;;;;;;;;5027740;28;20893;-82
2021/11/29 12:57:39;;;;;;;1.50;1.10;;;;;;;;;;5031604;28;20449;-81
2021/11/29 13:00:10;;;;;;;1.38;1.23;;;;;;;;;;4989679;28;20488;-82
2021/11/29 13:02:47;;;;;;;2.37;1.30;;;;;;;;;;5037577;28;20953;-84
2021/11/29 13:05:40;;;;;;;1.92;1.20;;;;;;;;;;5033596;28;20477;-84
2021/11/29 13:08:10;;;;;;;2.22;1.35;;;;;;;;;;5036083;28;20469;-83
2021/11/29 13:10:47;;;;;;;4.30;1.33;;;;;;;;;;5036371;28;20877;-83
2021/11/29 13:13:39;;;;;;;3.28;1.38;;;;;;;;;;5031593;28;20407;-82
2021/11/29 13:16:10;;;;;;;1.30;1.17;;;;;;;;;;5030077;28;21078;-83
2021/11/29 13:18:58;;;;;;;1.50;1.40;;;;;;;;;;5035051;28;20412;-83
2021/11/29 13:21:27;;;;;;;2.35;1.30;;;;;;;;;;5036563;28;20880;-84
2021/11/29 13:23:57;;;;;;;1.80;1.30;;;;;;;;;;5034923;28;20769;-83
2021/11/29 13:26:26;;;;;;;1.70;1.33;;;;;;;;;;5036900;28;20407;-82
2021/11/29 13:28:55;;;;;;;2.05;1.30;;;;;;;;;;5034308;28;20408;-83
2021/11/29 13:31:29;;;;;;;2.22;1.30;;;;;;;;;;5034744;28;20455;-82
2021/11/29 13:33:57;;;;;;;2.28;1.38;;;;;;;;;;5036751;28;20802;-82
2021/11/29 13:36:29;;;;;;;6.07;3.72;;;;;;;;;;5030032;28;20415;-84
2021/11/29 13:38:58;;;;;;;3.58;2.08;;;;;;;;;;5030253;28;20416;-83
2021/11/29 13:41:27;;;;;;;17.02;7.60;;;;;;;;;;5035555;28;20895;-84
2021/11/29 13:43:56;;;;;;;2.90;1.73;;;;;;;;;;5028132;28;20411;-83
2021/11/29 13:46:24;;;;;;;2.45;1.40;;;;;;;;;;5033570;28;20789;-84
2021/11/29 13:48:53;;;;;;;2.08;1.42;;;;;;;;;;5033332;28;21177;-83
2021/11/29 13:51:20;;;;;;;1.80;1.50;;;;;;;;;;5034227;28;20426;-84
2021/11/29 13:53:48;;;;;;;1.73;1.25;;;;;;;;;;5030945;28;20499;-84
2021/11/29 13:56:25;;;;;;;2.55;1.40;;;;;;;;;;5032335;28;20411;-82
2021/11/29 13:58:55;;;;;;;2.33;1.40;;;;;;;;;;5034544;28;20457;-83
2021/11/29 14:01:29;;;;;;;3.08;1.30;;;;;;;;;;5033049;28;20392;-82
2021/11/29 14:04:01;;;;;;;2.80;1.20;;;;;;;;;;5027372;28;20411;-83
2021/11/29 14:06:31;;;;;;;1.75;1.10;;;;;;;;;;5030058;28;20407;-82
2021/11/29 14:09:01;;;;;;;1.80;1.40;;;;;;;;;;5034565;28;20408;-83
2021/11/29 14:11:32;;;;;;;1.45;1.10;;;;;;;;;;5029465;28;20401;-83
2021/11/29 14:14:03;;;;;;;1.95;1.00;;;;;;;;;;5031761;28;20408;-82
2021/11/29 14:16:38;;;;;;;1.50;1.30;;;;;;;;;;5032647;28;20408;-83
2021/11/29 14:19:11;;;;;;;4.00;2.57;;;;;;;;;;5034395;28;20415;-82
2021/11/29 14:21:43;;;;;;;10.25;9.20;;;;;;;;;;5033528;28;20442;-82
2021/11/29 14:24:14;;;;;;;2.17;1.40;;;;;;;;;;5029385;28;20399;-81
2021/11/29 14:26:45;;;;;;;2.30;1.40;;;;;;;;;;5028979;28;20445;-84
2021/11/29 14:29:20;;;;;;;2.65;1.38;;;;;;;;;;5029582;28;20415;-83
2021/11/29 14:31:52;;;;;;;1.70;1.48;;;;;;;;;;5030766;28;20459;-83
2021/11/29 14:34:26;;;;;;;2.00;1.40;;;;;;;;;;5034860;28;20429;-81
2021/11/29 14:37:05;;;;;;;3.00;1.98;;;;;;;;;;5036882;28;20397;-81
2021/11/29 14:39:41;;;;;;;7.03;4.32;;;;;;;;;;5017933;28;20418;-83
2021/11/29 14:42:14;;;;;;;7.43;4.65;;;;;;;;;;5037471;28;20482;-82
2021/11/29 14:44:48;;;;;;;8.23;4.95;;;;;;;;;;5037276;28;20879;-82
2021/11/29 14:47:20;;;;;;;13.70;7.57;;;;;;;;;;5036608;28;21028;-82
2021/11/29 14:49:54;;;;;;;3.88;1.38;;;;;;;;;;5034169;28;20420;-82
2021/11/29 14:52:23;;;;;;;40.63;21.50;;;;;;;;;;5036054;28;20405;-80
2021/11/29 14:54:53;;;;;;;4.45;2.10;;;;;;;;;;5032955;28;20429;-83